sensor_id;sensor_type;location;lat;lon;timestamp;pressure;altitude;pressure_sealevel;temperature;humidity
62057;BME280;48016;50.284;18.860;2023-01-29T00:01:56;99061.88;;;-2.11;78.78
62057;BME280;48016;50.284;18.860;2023-01-29T00:04:23;99060.77;;;-2.11;78.68
62057;BME280;48016;50.284;18.860;2023-01-29T00:06:49;99058.27;;;-2.09;78.63
62057;BME280;48016;50.284;18.860;2023-01-29T00:09:16;99056.13;;;-2.08;78.77
62057;BME280;48016;50.284;18.860;2023-01-29T00:11:43;99059.29;;;-2.05;78.96
62057;BME280;48016;50.284;18.860;2023-01-29T00:14:11;99059.39;;;-2.04;79.23
62057;BME280;48016;50.284;18.860;2023-01-29T00:16:37;99062.30;;;-2.03;79.35
62057;BME280;48016;50.284;18.860;2023-01-29T00:19:05;99066.63;;;-2.01;79.35
62057;BME280;48016;50.284;18.860;2023-01-29T00:21:31;99062.86;;;-2.00;79.23
62057;BME280;48016;50.284;18.860;2023-01-29T00:23:59;99063.96;;;-2.04;79.00
62057;BME280;48016;50.284;18.860;2023-01-29T00:26:26;99069.13;;;-2.09;78.89
62057;BME280;48016;50.284;18.860;2023-01-29T00:28:53;99076.45;;;-2.14;78.81
62057;BME280;48016;50.284;18.860;2023-01-29T00:31:21;99075.31;;;-2.18;78.74
62057;BME280;48016;50.284;18.860;2023-01-29T00:33:49;99080.27;;;-2.20;78.89
62057;BME280;48016;50.284;18.860;2023-01-29T00:36:17;99081.41;;;-2.21;78.87
62057;BME280;48016;50.284;18.860;2023-01-29T00:38:45;99083.54;;;-2.22;78.77
62057;BME280;48016;50.284;18.860;2023-01-29T00:41:20;99083.30;;;-2.23;78.71
62057;BME280;48016;50.284;18.860;2023-01-29T00:44:06;99077.77;;;-2.21;78.79
62057;BME280;48016;50.284;18.860;2023-01-29T00:46:52;99075.68;;;-2.20;78.77
62057;BME280;48016;50.284;18.860;2023-01-29T00:49:19;99085.30;;;-2.19;78.97
62057;BME280;48016;50.284;18.860;2023-01-29T00:51:46;99083.43;;;-2.22;79.06
62057;BME280;48016;50.284;18.860;2023-01-29T00:54:33;99089.38;;;-2.24;78.96
62057;BME280;48016;50.284;18.860;2023-01-29T00:57:00;99091.09;;;-2.30;78.83
62057;BME280;48016;50.284;18.860;2023-01-29T00:59:27;99093.72;;;-2.35;78.56
62057;BME280;48016;50.284;18.860;2023-01-29T01:01:55;99095.77;;;-2.43;78.40
62057;BME280;48016;50.284;18.860;2023-01-29T01:04:40;99099.73;;;-2.49;78.16
62057;BME280;48016;50.284;18.860;2023-01-29T01:07:07;99101.35;;;-2.56;78.09
62057;BME280;48016;50.284;18.860;2023-01-29T01:09:35;99107.27;;;-2.61;78.16
62057;BME280;48016;50.284;18.860;2023-01-29T01:12:20;99109.45;;;-2.67;78.03
62057;BME280;48016;50.284;18.860;2023-01-29T01:14:48;99102.20;;;-2.72;78.01
62057;BME280;48016;50.284;18.860;2023-01-29T01:17:15;99096.58;;;-2.78;78.01
62057;BME280;48016;50.284;18.860;2023-01-29T01:19:42;99093.21;;;-2.80;78.24
62057;BME280;48016;50.284;18.860;2023-01-29T01:22:08;99094.98;;;-2.80;78.27
62057;BME280;48016;50.284;18.860;2023-01-29T01:24:36;99083.77;;;-2.79;78.25
62057;BME280;48016;50.284;18.860;2023-01-29T01:27:03;99078.80;;;-2.77;78.46
62057;BME280;48016;50.284;18.860;2023-01-29T01:29:29;99079.68;;;-2.75;78.32
62057;BME280;48016;50.284;18.860;2023-01-29T01:31:56;99080.58;;;-2.73;78.26
62057;BME280;48016;50.284;18.860;2023-01-29T01:34:23;99079.11;;;-2.70;78.15
62057;BME280;48016;50.284;18.860;2023-01-29T01:36:49;99078.05;;;-2.68;78.09
62057;BME280;48016;50.284;18.860;2023-01-29T01:39:16;99078.80;;;-2.69;77.90
62057;BME280;48016;50.284;18.860;2023-01-29T01:41:42;99080.16;;;-2.69;77.91
62057;BME280;48016;50.284;18.860;2023-01-29T01:47:14;99075.48;;;-2.68;77.46
62057;BME280;48016;50.284;18.860;2023-01-29T01:49:43;99072.08;;;-2.69;77.23
62057;BME280;48016;50.284;18.860;2023-01-29T01:52:10;99072.19;;;-2.72;76.63
62057;BME280;48016;50.284;18.860;2023-01-29T01:54:39;99064.61;;;-2.76;76.76
62057;BME280;48016;50.284;18.860;2023-01-29T01:57:09;99066.38;;;-2.77;77.11
62057;BME280;48016;50.284;18.860;2023-01-29T01:59:52;99059.13;;;-2.81;76.65
62057;BME280;48016;50.284;18.860;2023-01-29T02:02:20;99052.09;;;-2.83;76.55
62057;BME280;48016;50.284;18.860;2023-01-29T02:05:06;99053.45;;;-2.84;76.49
62057;BME280;48016;50.284;18.860;2023-01-29T02:07:52;99049.70;;;-2.86;76.55
62057;BME280;48016;50.284;18.860;2023-01-29T02:10:42;99054.18;;;-2.86;76.44
62057;BME280;48016;50.284;18.860;2023-01-29T02:13:09;99049.98;;;-2.87;76.72
62057;BME280;48016;50.284;18.860;2023-01-29T02:15:37;99059.29;;;-2.86;76.86
62057;BME280;48016;50.284;18.860;2023-01-29T02:18:07;99061.70;;;-2.86;77.09
62057;BME280;48016;50.284;18.860;2023-01-29T02:20:34;99056.59;;;-2.84;77.10
62057;BME280;48016;50.284;18.860;2023-01-29T02:26:00;99037.59;;;-2.83;77.00
62057;BME280;48016;50.284;18.860;2023-01-29T02:42:25;99035.07;;;-2.75;75.94
62057;BME280;48016;50.284;18.860;2023-01-29T02:45:05;99038.91;;;-2.75;75.98
62057;BME280;48016;50.284;18.860;2023-01-29T02:47:47;99045.58;;;-2.80;75.21
62057;BME280;48016;50.284;18.860;2023-01-29T02:50:27;99047.59;;;-2.87;74.88
62057;BME280;48016;50.284;18.860;2023-01-29T02:55:41;99050.98;;;-2.93;74.67
62057;BME280;48016;50.284;18.860;2023-01-29T02:58:19;99063.08;;;-2.98;74.38
62057;BME280;48016;50.284;18.860;2023-01-29T03:00:48;99066.65;;;-3.04;74.41
62057;BME280;48016;50.284;18.860;2023-01-29T03:03:23;99063.43;;;-3.07;74.17
62057;BME280;48016;50.284;18.860;2023-01-29T03:05:59;99054.35;;;-3.09;73.61
62057;BME280;48016;50.284;18.860;2023-01-29T03:08:35;99056.26;;;-3.11;73.45
62057;BME280;48016;50.284;18.860;2023-01-29T03:11:12;99054.43;;;-3.14;73.72
62057;BME280;48016;50.284;18.860;2023-01-29T03:16:17;99059.86;;;-3.19;73.90
62057;BME280;48016;50.284;18.860;2023-01-29T03:18:56;99062.11;;;-3.23;73.62
62057;BME280;48016;50.284;18.860;2023-01-29T03:21:49;99073.94;;;-3.26;73.49
62057;BME280;48016;50.284;18.860;2023-01-29T03:24:40;99071.56;;;-3.31;73.57
62057;BME280;48016;50.284;18.860;2023-01-29T03:27:34;99073.27;;;-3.36;73.52
62057;BME280;48016;50.284;18.860;2023-01-29T03:30:24;99075.32;;;-3.41;73.48
62057;BME280;48016;50.284;18.860;2023-01-29T03:33:14;99071.54;;;-3.45;73.30
62057;BME280;48016;50.284;18.860;2023-01-29T03:35:50;99069.16;;;-3.44;73.37
62057;BME280;48016;50.284;18.860;2023-01-29T03:38:19;99066.39;;;-3.41;73.39
62057;BME280;48016;50.284;18.860;2023-01-29T03:41:27;99059.66;;;-3.37;73.36
62057;BME280;48016;50.284;18.860;2023-01-29T03:44:09;99062.58;;;-3.33;73.56
62057;BME280;48016;50.284;18.860;2023-01-29T03:46:50;99061.11;;;-3.29;73.60
62057;BME280;48016;50.284;18.860;2023-01-29T04:00:35;99043.61;;;-3.25;72.39
62057;BME280;48016;50.284;18.860;2023-01-29T04:06:03;99044.15;;;-3.32;72.00
62057;BME280;48016;50.284;18.860;2023-01-29T04:08:44;99044.59;;;-3.31;72.16
62057;BME280;48016;50.284;18.860;2023-01-29T04:11:13;99041.48;;;-3.32;72.27
62057;BME280;48016;50.284;18.860;2023-01-29T04:13:42;99046.62;;;-3.30;72.56
62057;BME280;48016;50.284;18.860;2023-01-29T04:16:13;99042.77;;;-3.27;72.23
62057;BME280;48016;50.284;18.860;2023-01-29T04:18:46;99036.09;;;-3.25;72.16
62057;BME280;48016;50.284;18.860;2023-01-29T04:21:14;99031.09;;;-3.26;72.09
62057;BME280;48016;50.284;18.860;2023-01-29T04:23:41;99023.57;;;-3.25;72.12
62057;BME280;48016;50.284;18.860;2023-01-29T04:28:57;99026.13;;;-3.22;72.25
62057;BME280;48016;50.284;18.860;2023-01-29T04:31:30;99017.84;;;-3.21;72.11
62057;BME280;48016;50.284;18.860;2023-01-29T04:34:23;99010.64;;;-3.19;72.04
62057;BME280;48016;50.284;18.860;2023-01-29T04:39:38;98994.08;;;-3.15;72.36
62057;BME280;48016;50.284;18.860;2023-01-29T04:43:00;98990.09;;;-3.14;72.33
62057;BME280;48016;50.284;18.860;2023-01-29T04:45:21;98993.27;;;-3.12;72.41
62057;BME280;48016;50.284;18.860;2023-01-29T04:48:19;98987.04;;;-3.12;72.44
62057;BME280;48016;50.284;18.860;2023-01-29T04:51:21;98979.22;;;-3.10;72.40
62057;BME280;48016;50.284;18.860;2023-01-29T04:54:11;98972.59;;;-3.08;72.68
62057;BME280;48016;50.284;18.860;2023-01-29T04:56:51;98971.99;;;-3.06;72.73
62057;BME280;48016;50.284;18.860;2023-01-29T04:59:35;98971.89;;;-3.01;72.85
62057;BME280;48016;50.284;18.860;2023-01-29T05:02:06;98972.04;;;-2.96;72.98
62057;BME280;48016;50.284;18.860;2023-01-29T05:04:37;98973.27;;;-2.90;73.16
62057;BME280;48016;50.284;18.860;2023-01-29T05:07:07;98970.79;;;-2.87;73.25
62057;BME280;48016;50.284;18.860;2023-01-29T05:09:36;98973.05;;;-2.83;73.35
62057;BME280;48016;50.284;18.860;2023-01-29T05:12:06;98974.63;;;-2.79;73.13
62057;BME280;48016;50.284;18.860;2023-01-29T05:14:37;98976.64;;;-2.77;73.25
62057;BME280;48016;50.284;18.860;2023-01-29T05:17:11;98976.64;;;-2.75;72.96
62057;BME280;48016;50.284;18.860;2023-01-29T05:19:40;98981.69;;;-2.74;72.89
62057;BME280;48016;50.284;18.860;2023-01-29T05:22:09;98987.28;;;-2.74;73.04
62057;BME280;48016;50.284;18.860;2023-01-29T05:24:37;98990.65;;;-2.72;72.84
62057;BME280;48016;50.284;18.860;2023-01-29T05:27:03;98981.77;;;-2.71;72.83
62057;BME280;48016;50.284;18.860;2023-01-29T05:29:49;98986.91;;;-2.71;72.74
62057;BME280;48016;50.284;18.860;2023-01-29T05:32:16;98987.45;;;-2.72;72.60
62057;BME280;48016;50.284;18.860;2023-01-29T05:34:42;98991.21;;;-2.74;72.67
62057;BME280;48016;50.284;18.860;2023-01-29T05:37:09;98990.11;;;-2.76;73.09
62057;BME280;48016;50.284;18.860;2023-01-29T05:39:36;98983.26;;;-2.76;73.00
62057;BME280;48016;50.284;18.860;2023-01-29T05:42:03;98975.88;;;-2.76;72.97
62057;BME280;48016;50.284;18.860;2023-01-29T05:44:29;98972.97;;;-2.75;73.04
62057;BME280;48016;50.284;18.860;2023-01-29T05:46:56;98975.77;;;-2.75;73.05
62057;BME280;48016;50.284;18.860;2023-01-29T05:49:23;98983.18;;;-2.77;73.06
62057;BME280;48016;50.284;18.860;2023-01-29T05:51:50;98988.52;;;-2.79;73.00
62057;BME280;48016;50.284;18.860;2023-01-29T05:54:16;98985.18;;;-2.79;73.02
62057;BME280;48016;50.284;18.860;2023-01-29T05:56:43;98988.11;;;-2.80;72.90
62057;BME280;48016;50.284;18.860;2023-01-29T05:59:10;98989.94;;;-2.79;72.97
62057;BME280;48016;50.284;18.860;2023-01-29T06:01:36;98990.84;;;-2.76;73.14
62057;BME280;48016;50.284;18.860;2023-01-29T06:04:03;98989.19;;;-2.71;73.28
62057;BME280;48016;50.284;18.860;2023-01-29T06:06:30;98992.46;;;-2.65;73.45
62057;BME280;48016;50.284;18.860;2023-01-29T06:08:56;98993.58;;;-2.60;73.58
62057;BME280;48016;50.284;18.860;2023-01-29T06:11:23;98987.62;;;-2.56;73.45
62057;BME280;48016;50.284;18.860;2023-01-29T06:13:50;98989.57;;;-2.52;73.25
62057;BME280;48016;50.284;18.860;2023-01-29T06:16:16;98993.06;;;-2.48;73.25
62057;BME280;48016;50.284;18.860;2023-01-29T06:18:43;98993.13;;;-2.47;72.91
62057;BME280;48016;50.284;18.860;2023-01-29T06:21:11;98990.66;;;-2.49;72.93
62057;BME280;48016;50.284;18.860;2023-01-29T06:23:39;98989.90;;;-2.50;72.74
62057;BME280;48016;50.284;18.860;2023-01-29T06:26:10;98997.46;;;-2.52;72.80
62057;BME280;48016;50.284;18.860;2023-01-29T06:28:38;99005.08;;;-2.52;72.67
62057;BME280;48016;50.284;18.860;2023-01-29T06:31:05;99010.16;;;-2.54;72.69
62057;BME280;48016;50.284;18.860;2023-01-29T06:33:33;99010.17;;;-2.57;72.96
62057;BME280;48016;50.284;18.860;2023-01-29T06:36:03;99008.09;;;-2.61;72.99
62057;BME280;48016;50.284;18.860;2023-01-29T06:38:30;99011.91;;;-2.62;73.17
62057;BME280;48016;50.284;18.860;2023-01-29T06:40:57;99011.11;;;-2.63;73.31
62057;BME280;48016;50.284;18.860;2023-01-29T06:43:24;99009.61;;;-2.64;73.36
62057;BME280;48016;50.284;18.860;2023-01-29T06:45:56;99007.21;;;-2.66;73.66
62057;BME280;48016;50.284;18.860;2023-01-29T06:48:23;99008.20;;;-2.67;73.74
62057;BME280;48016;50.284;18.860;2023-01-29T06:50:51;99007.34;;;-2.67;74.14
62057;BME280;48016;50.284;18.860;2023-01-29T06:53:20;99017.25;;;-2.64;74.25
62057;BME280;48016;50.284;18.860;2023-01-29T06:55:51;99016.15;;;-2.62;74.48
62057;BME280;48016;50.284;18.860;2023-01-29T06:58:19;99012.94;;;-2.58;74.86
62057;BME280;48016;50.284;18.860;2023-01-29T07:00:46;99014.20;;;-2.53;75.10
62057;BME280;48016;50.284;18.860;2023-01-29T07:03:13;99013.08;;;-2.49;75.22
62057;BME280;48016;50.284;18.860;2023-01-29T07:05:40;99009.77;;;-2.50;75.16
62057;BME280;48016;50.284;18.860;2023-01-29T07:08:06;99014.79;;;-2.50;75.43
62057;BME280;48016;50.284;18.860;2023-01-29T07:10:35;99019.91;;;-2.52;75.29
62057;BME280;48016;50.284;18.860;2023-01-29T07:13:01;99020.38;;;-2.54;75.53
62057;BME280;48016;50.284;18.860;2023-01-29T07:15:28;99021.14;;;-2.56;75.63
62057;BME280;48016;50.284;18.860;2023-01-29T07:17:58;99023.55;;;-2.55;75.71
62057;BME280;48016;50.284;18.860;2023-01-29T07:20:27;99023.44;;;-2.54;75.87
62057;BME280;48016;50.284;18.860;2023-01-29T07:22:56;99025.66;;;-2.53;75.71
62057;BME280;48016;50.284;18.860;2023-01-29T07:25:23;99028.24;;;-2.52;75.83
62057;BME280;48016;50.284;18.860;2023-01-29T07:27:51;99028.96;;;-2.54;75.86
62057;BME280;48016;50.284;18.860;2023-01-29T07:30:17;99025.88;;;-2.52;75.82
62057;BME280;48016;50.284;18.860;2023-01-29T07:32:44;99027.16;;;-2.47;75.84
62057;BME280;48016;50.284;18.860;2023-01-29T07:35:11;99025.58;;;-2.42;76.05
62057;BME280;48016;50.284;18.860;2023-01-29T07:37:37;99020.80;;;-2.35;76.10
62057;BME280;48016;50.284;18.860;2023-01-29T07:40:05;99021.42;;;-2.30;76.41
62057;BME280;48016;50.284;18.860;2023-01-29T07:42:37;99025.34;;;-2.29;76.60
62057;BME280;48016;50.284;18.860;2023-01-29T07:45:06;99031.41;;;-2.28;76.72
62057;BME280;48016;50.284;18.860;2023-01-29T07:47:33;99032.83;;;-2.24;76.72
62057;BME280;48016;50.284;18.860;2023-01-29T07:50:00;99033.15;;;-2.19;76.69
62057;BME280;48016;50.284;18.860;2023-01-29T07:52:28;99034.20;;;-2.13;76.46
62057;BME280;48016;50.284;18.860;2023-01-29T07:54:55;99039.41;;;-2.11;76.37
62057;BME280;48016;50.284;18.860;2023-01-29T07:57:22;99049.58;;;-2.09;76.31
62057;BME280;48016;50.284;18.860;2023-01-29T07:59:50;99057.89;;;-2.03;76.17
62057;BME280;48016;50.284;18.860;2023-01-29T08:02:17;99057.05;;;-2.02;75.98
62057;BME280;48016;50.284;18.860;2023-01-29T08:04:43;99049.80;;;-2.00;75.91
62057;BME280;48016;50.284;18.860;2023-01-29T08:07:10;99056.30;;;-1.98;75.75
62057;BME280;48016;50.284;18.860;2023-01-29T08:09:37;99061.99;;;-1.95;75.91
62057;BME280;48016;50.284;18.860;2023-01-29T08:12:03;99064.79;;;-1.88;75.98
62057;BME280;48016;50.284;18.860;2023-01-29T08:14:30;99062.20;;;-1.85;75.98
62057;BME280;48016;50.284;18.860;2023-01-29T08:16:57;99062.51;;;-1.81;76.15
62057;BME280;48016;50.284;18.860;2023-01-29T08:19:23;99060.06;;;-1.79;76.15
62057;BME280;48016;50.284;18.860;2023-01-29T08:21:50;99057.70;;;-1.77;76.21
62057;BME280;48016;50.284;18.860;2023-01-29T08:24:17;99063.90;;;-1.74;76.14
62057;BME280;48016;50.284;18.860;2023-01-29T08:26:43;99068.20;;;-1.71;75.94
62057;BME280;48016;50.284;18.860;2023-01-29T08:29:11;99074.50;;;-1.70;75.43
62057;BME280;48016;50.284;18.860;2023-01-29T08:31:38;99081.86;;;-1.68;75.46
62057;BME280;48016;50.284;18.860;2023-01-29T08:34:04;99075.74;;;-1.67;75.31
62057;BME280;48016;50.284;18.860;2023-01-29T08:36:31;99079.86;;;-1.64;75.22
62057;BME280;48016;50.284;18.860;2023-01-29T08:38:58;99074.33;;;-1.58;75.07
62057;BME280;48016;50.284;18.860;2023-01-29T08:41:24;99079.25;;;-1.53;74.94
62057;BME280;48016;50.284;18.860;2023-01-29T08:43:51;99076.52;;;-1.49;74.81
62057;BME280;48016;50.284;18.860;2023-01-29T08:46:18;99070.83;;;-1.45;74.88
62057;BME280;48016;50.284;18.860;2023-01-29T08:48:44;99077.05;;;-1.44;74.63
62057;BME280;48016;50.284;18.860;2023-01-29T08:51:11;99078.39;;;-1.45;74.43
62057;BME280;48016;50.284;18.860;2023-01-29T08:53:38;99071.01;;;-1.45;74.25
62057;BME280;48016;50.284;18.860;2023-01-29T08:56:05;99068.91;;;-1.45;74.16
62057;BME280;48016;50.284;18.860;2023-01-29T08:58:31;99071.20;;;-1.47;73.91
62057;BME280;48016;50.284;18.860;2023-01-29T09:01:06;99068.06;;;-1.44;74.06
62057;BME280;48016;50.284;18.860;2023-01-29T09:03:34;99065.20;;;-1.44;73.99
62057;BME280;48016;50.284;18.860;2023-01-29T09:06:01;99059.39;;;-1.42;74.27
62057;BME280;48016;50.284;18.860;2023-01-29T09:08:27;99046.54;;;-1.38;74.31
62057;BME280;48016;50.284;18.860;2023-01-29T09:10:57;99039.33;;;-1.33;74.13
62057;BME280;48016;50.284;18.860;2023-01-29T09:13:25;99036.15;;;-1.29;74.05
62057;BME280;48016;50.284;18.860;2023-01-29T09:15:52;99036.70;;;-1.30;73.61
62057;BME280;48016;50.284;18.860;2023-01-29T09:18:18;99031.66;;;-1.25;73.30
62057;BME280;48016;50.284;18.860;2023-01-29T09:20:47;99028.25;;;-1.20;73.39
62057;BME280;48016;50.284;18.860;2023-01-29T09:23:14;99031.34;;;-1.18;73.29
62057;BME280;48016;50.284;18.860;2023-01-29T09:25:42;99036.12;;;-1.18;72.70
62057;BME280;48016;50.284;18.860;2023-01-29T09:28:09;99037.78;;;-1.18;72.05
62057;BME280;48016;50.284;18.860;2023-01-29T09:30:35;99037.48;;;-1.14;72.09
62057;BME280;48016;50.284;18.860;2023-01-29T09:33:04;99040.92;;;-1.09;71.86
62057;BME280;48016;50.284;18.860;2023-01-29T09:35:32;99043.98;;;-1.05;71.72
62057;BME280;48016;50.284;18.860;2023-01-29T09:37:59;99045.98;;;-1.04;71.50
62057;BME280;48016;50.284;18.860;2023-01-29T09:40:51;99049.08;;;-1.10;70.57
62057;BME280;48016;50.284;18.860;2023-01-29T09:43:41;99052.20;;;-1.18;70.18
62057;BME280;48016;50.284;18.860;2023-01-29T09:46:20;99051.80;;;-1.22;70.69
62057;BME280;48016;50.284;18.860;2023-01-29T09:48:54;99045.64;;;-1.27;70.38
62057;BME280;48016;50.284;18.860;2023-01-29T09:51:27;99043.34;;;-1.30;70.32
62057;BME280;48016;50.284;18.860;2023-01-29T09:54:23;99044.57;;;-1.30;70.40
62057;BME280;48016;50.284;18.860;2023-01-29T09:56:56;99044.30;;;-1.33;70.72
62057;BME280;48016;50.284;18.860;2023-01-29T09:59:25;99038.98;;;-1.38;70.08
62057;BME280;48016;50.284;18.860;2023-01-29T10:02:09;99032.03;;;-1.41;69.88
62057;BME280;48016;50.284;18.860;2023-01-29T10:04:44;99018.54;;;-1.44;69.91
62057;BME280;48016;50.284;18.860;2023-01-29T10:07:30;99008.39;;;-1.45;69.69
62057;BME280;48016;50.284;18.860;2023-01-29T10:10:49;99003.84;;;-1.47;69.25
62057;BME280;48016;50.284;18.860;2023-01-29T10:16:07;98996.71;;;-1.43;69.08
62057;BME280;48016;50.284;18.860;2023-01-29T10:24:25;98973.63;;;-1.37;68.82
62057;BME280;48016;50.284;18.860;2023-01-29T10:26:54;98966.81;;;-1.31;68.90
62057;BME280;48016;50.284;18.860;2023-01-29T10:29:21;98961.75;;;-1.23;68.98
62057;BME280;48016;50.284;18.860;2023-01-29T10:31:55;98956.45;;;-1.18;68.90
62057;BME280;48016;50.284;18.860;2023-01-29T10:34:39;98951.81;;;-1.15;68.73
62057;BME280;48016;50.284;18.860;2023-01-29T10:37:18;98945.12;;;-1.11;68.82
62057;BME280;48016;50.284;18.860;2023-01-29T10:39:46;98940.52;;;-1.11;68.37
62057;BME280;48016;50.284;18.860;2023-01-29T10:45:04;98928.47;;;-1.03;68.75
62057;BME280;48016;50.284;18.860;2023-01-29T11:00:48;98903.66;;;-0.66;68.17
62057;BME280;48016;50.284;18.860;2023-01-29T11:03:25;98900.05;;;-0.54;68.42
62057;BME280;48016;50.284;18.860;2023-01-29T11:06:09;98896.77;;;-0.48;67.84
62057;BME280;48016;50.284;18.860;2023-01-29T11:09:17;98885.68;;;-0.47;67.44
62057;BME280;48016;50.284;18.860;2023-01-29T11:11:53;98880.66;;;-0.48;66.82
62057;BME280;48016;50.284;18.860;2023-01-29T11:17:23;98865.29;;;-0.39;66.84
62057;BME280;48016;50.284;18.860;2023-01-29T11:19:51;98857.48;;;-0.33;66.89
62057;BME280;48016;50.284;18.860;2023-01-29T11:22:21;98854.47;;;-0.31;66.71
62057;BME280;48016;50.284;18.860;2023-01-29T11:28:11;98857.47;;;-0.16;65.63
62057;BME280;48016;50.284;18.860;2023-01-29T11:30:34;98853.45;;;-0.08;65.66
62057;BME280;48016;50.284;18.860;2023-01-29T11:33:22;98849.27;;;-0.07;65.66
62057;BME280;48016;50.284;18.860;2023-01-29T11:35:49;98850.63;;;-0.08;65.33
62057;BME280;48016;50.284;18.860;2023-01-29T11:38:23;98844.71;;;-0.04;64.97
62057;BME280;48016;50.284;18.860;2023-01-29T11:40:52;98840.51;;;0.04;65.22
62057;BME280;48016;50.284;18.860;2023-01-29T11:45:54;98841.89;;;0.12;64.45
62057;BME280;48016;50.284;18.860;2023-01-29T11:48:23;98844.19;;;0.12;64.55
62057;BME280;48016;50.284;18.860;2023-01-29T11:50:56;98845.11;;;0.08;64.62
62057;BME280;48016;50.284;18.860;2023-01-29T11:53:48;98850.27;;;0.05;64.61
62057;BME280;48016;50.284;18.860;2023-01-29T11:56:21;98849.86;;;0.04;64.48
62057;BME280;48016;50.284;18.860;2023-01-29T11:58:50;98848.83;;;0.02;63.68
62057;BME280;48016;50.284;18.860;2023-01-29T12:01:34;98851.40;;;0.03;63.72
62057;BME280;48016;50.284;18.860;2023-01-29T12:04:03;98843.36;;;0.08;63.52
62057;BME280;48016;50.284;18.860;2023-01-29T12:06:41;98843.17;;;0.13;63.72
62057;BME280;48016;50.284;18.860;2023-01-29T12:09:14;98838.95;;;0.14;63.26
62057;BME280;48016;50.284;18.860;2023-01-29T12:11:42;98833.23;;;0.13;63.82
62057;BME280;48016;50.284;18.860;2023-01-29T12:14:28;98827.31;;;0.13;63.23
62057;BME280;48016;50.284;18.860;2023-01-29T12:17:03;98831.36;;;0.11;63.48
62057;BME280;48016;50.284;18.860;2023-01-29T12:19:43;98829.48;;;0.15;63.29
62057;BME280;48016;50.284;18.860;2023-01-29T12:24:50;98825.98;;;0.16;62.72
62057;BME280;48016;50.284;18.860;2023-01-29T12:30:19;98815.02;;;0.14;62.42
62057;BME280;48016;50.284;18.860;2023-01-29T12:35:47;98806.73;;;0.25;63.11
62057;BME280;48016;50.284;18.860;2023-01-29T12:38:20;98806.26;;;0.21;62.47
62057;BME280;48016;50.284;18.860;2023-01-29T12:40:52;98800.77;;;0.18;62.59
62057;BME280;48016;50.284;18.860;2023-01-29T12:43:29;98800.87;;;0.12;61.90
62057;BME280;48016;50.284;18.860;2023-01-29T12:46:00;98799.08;;;0.12;61.83
62057;BME280;48016;50.284;18.860;2023-01-29T12:48:31;98804.81;;;0.13;62.03
62057;BME280;48016;50.284;18.860;2023-01-29T12:51:06;98800.16;;;0.14;62.08
62057;BME280;48016;50.284;18.860;2023-01-29T12:53:40;98794.67;;;0.17;62.14
62057;BME280;48016;50.284;18.860;2023-01-29T12:56:14;98792.48;;;0.19;62.08
62057;BME280;48016;50.284;18.860;2023-01-29T12:58:50;98784.44;;;0.19;62.75
62057;BME280;48016;50.284;18.860;2023-01-29T13:01:37;98786.62;;;0.16;62.33
62057;BME280;48016;50.284;18.860;2023-01-29T13:04:13;98788.66;;;0.09;62.12
62057;BME280;48016;50.284;18.860;2023-01-29T13:06:48;98783.38;;;0.09;62.34
62057;BME280;48016;50.284;18.860;2023-01-29T13:09:20;98777.04;;;0.09;62.65
62057;BME280;48016;50.284;18.860;2023-01-29T13:12:06;98779.27;;;0.08;62.59
62057;BME280;48016;50.284;18.860;2023-01-29T13:14:53;98775.19;;;0.11;62.68
62057;BME280;48016;50.284;18.860;2023-01-29T13:20:11;98764.61;;;0.13;62.55
62057;BME280;48016;50.284;18.860;2023-01-29T13:22:39;98768.36;;;0.13;62.43
62057;BME280;48016;50.284;18.860;2023-01-29T13:25:16;98766.52;;;0.09;62.59
62057;BME280;48016;50.284;18.860;2023-01-29T13:27:44;98766.00;;;0.04;62.90
62057;BME280;48016;50.284;18.860;2023-01-29T13:30:31;98764.75;;;0.01;62.94
62057;BME280;48016;50.284;18.860;2023-01-29T13:33:02;98763.95;;;-0.03;62.73
62057;BME280;48016;50.284;18.860;2023-01-29T13:35:38;98759.11;;;-0.05;62.58
62057;BME280;48016;50.284;18.860;2023-01-29T13:38:25;98754.79;;;-0.05;62.82
62057;BME280;48016;50.284;18.860;2023-01-29T13:40:57;98750.55;;;-0.07;62.97
62057;BME280;48016;50.284;18.860;2023-01-29T13:43:26;98748.98;;;-0.05;63.41
62057;BME280;48016;50.284;18.860;2023-01-29T13:45:55;98747.18;;;-0.07;63.26
62057;BME280;48016;50.284;18.860;2023-01-29T13:48:30;98739.65;;;-0.09;63.13
62057;BME280;48016;50.284;18.860;2023-01-29T13:51:01;98732.30;;;-0.11;62.88
62057;BME280;48016;50.284;18.860;2023-01-29T13:53:36;98722.74;;;-0.17;63.08
62057;BME280;48016;50.284;18.860;2023-01-29T13:56:45;98720.25;;;-0.23;63.19
62057;BME280;48016;50.284;18.860;2023-01-29T14:02:23;98726.12;;;-0.33;63.05
62057;BME280;48016;50.284;18.860;2023-01-29T14:04:52;98726.13;;;-0.35;63.54
62057;BME280;48016;50.284;18.860;2023-01-29T14:10:19;98726.73;;;-0.48;63.54
62057;BME280;48016;50.284;18.860;2023-01-29T14:12:49;98724.80;;;-0.53;63.66
62057;BME280;48016;50.284;18.860;2023-01-29T14:15:22;98722.26;;;-0.57;63.77
62057;BME280;48016;50.284;18.860;2023-01-29T14:20:39;98725.65;;;-0.66;63.78
62057;BME280;48016;50.284;18.860;2023-01-29T14:23:07;98728.92;;;-0.70;63.97
62057;BME280;48016;50.284;18.860;2023-01-29T14:25:45;98725.09;;;-0.76;63.93
62057;BME280;48016;50.284;18.860;2023-01-29T14:28:17;98722.09;;;-0.80;63.83
62057;BME280;48016;50.284;18.860;2023-01-29T14:30:46;98720.11;;;-0.86;64.00
62057;BME280;48016;50.284;18.860;2023-01-29T14:33:35;98727.59;;;-0.90;63.96
62057;BME280;48016;50.284;18.860;2023-01-29T14:36:05;98732.42;;;-0.94;64.10
62057;BME280;48016;50.284;18.860;2023-01-29T14:38:35;98730.90;;;-0.98;64.06
62057;BME280;48016;50.284;18.860;2023-01-29T14:41:29;98727.04;;;-1.03;64.14
62057;BME280;48016;50.284;18.860;2023-01-29T14:47:02;98724.50;;;-1.08;64.31
62057;BME280;48016;50.284;18.860;2023-01-29T14:49:53;98719.33;;;-1.11;64.25
62057;BME280;48016;50.284;18.860;2023-01-29T14:52:25;98719.29;;;-1.17;64.46
62057;BME280;48016;50.284;18.860;2023-01-29T14:54:57;98726.39;;;-1.22;64.51
62057;BME280;48016;50.284;18.860;2023-01-29T14:57:25;98725.23;;;-1.26;64.56
62057;BME280;48016;50.284;18.860;2023-01-29T15:00:05;98725.63;;;-1.30;64.49